Time;durP1;ratioP1;P1;durP2;ratioP2;P2;SDS_P1;SDS_P2;PMS_P1;PMS_P2;Temp;Humidity;BMP_temperature;BMP_pressure;BME280_temperature;BME280_humidity;BME280_pressure;Samples;Min_cycle;Max_cycle;Signal;HPM_P1;HPM_P2
2022/03/18 00:00:34;;;;;;;21.98;10.40;;;;;;;;;;4800454;29;20439;-84
2022/03/18 00:03:25;;;;;;;19.90;9.52;;;;;;;;;;4803367;29;20433;-84
2022/03/18 00:06:17;;;;;;;;;;;;;;;;;;;;;
2022/03/18 00:09:10;;;;;;;25.17;9.30;;;;;;;;;;4786434;29;20474;-84
2022/03/18 00:12:26;;;;;;;24.05;9.52;;;;;;;;;;4788744;29;20858;-84
2022/03/18 00:15:14;;;;;;;21.73;9.13;;;;;;;;;;4708228;30;20856;-84
2022/03/18 00:18:26;;;;;;;;;;;;;;;;;;;;;
2022/03/18 00:21:19;;;;;;;22.20;9.45;;;;;;;;;;4717615;30;20507;-83
2022/03/18 00:24:01;;;;;;;;;;;;;;;;;;;;;
2022/03/18 00:26:58;;;;;;;20.88;9.38;;;;;;;;;;4732547;30;20923;-83
2022/03/18 00:33:11;;;;;;;26.70;10.45;;;;;;;;;;4680383;30;20830;-83
2022/03/18 00:35:56;;;;;;;19.33;9.67;;;;;;;;;;4683172;30;20818;-83
2022/03/18 00:38:53;;;;;;;19.40;9.70;;;;;;;;;;4697676;30;20418;-83
2022/03/18 00:41:27;;;;;;;21.92;10.85;;;;;;;;;;4665745;30;21172;-83
2022/03/18 00:44:03;;;;;;;22.73;10.73;;;;;;;;;;4672448;30;20451;-83
2022/03/18 00:46:29;;;;;;;22.02;10.82;;;;;;;;;;4688094;30;20576;-84
2022/03/18 00:52:05;;;;;;;20.35;11.57;;;;;;;;;;4762198;30;20816;-83
2022/03/18 00:57:55;;;;;;;22.92;11.77;;;;;;;;;;4745427;30;20970;-83
2022/03/18 01:00:27;;;;;;;21.48;11.82;;;;;;;;;;4735818;29;20441;-83
2022/03/18 01:03:02;;;;;;;22.55;11.10;;;;;;;;;;4767059;29;20981;-83
2022/03/18 01:05:28;;;;;;;24.30;11.70;;;;;;;;;;4786841;29;21158;-83
2022/03/18 01:08:19;;;;;;;21.23;11.27;;;;;;;;;;4771965;29;20472;-84
2022/03/18 01:11:05;;;;;;;;;;;;;;;;;;;;;
2022/03/18 01:17:44;;;;;;;24.07;12.00;;;;;;;;;;4729912;30;20966;-84
2022/03/18 01:23:51;;;;;;;21.55;11.23;;;;;;;;;;4657757;30;20425;-84
2022/03/18 01:26:26;;;;;;;22.83;11.63;;;;;;;;;;4648958;30;20556;-83
2022/03/18 01:28:58;;;;;;;22.40;11.07;;;;;;;;;;4722581;30;20491;-83
2022/03/18 01:31:28;;;;;;;25.15;11.20;;;;;;;;;;4707577;30;20985;-83
2022/03/18 01:34:13;;;;;;;24.80;11.37;;;;;;;;;;4744976;29;21042;-83
2022/03/18 01:36:41;;;;;;;23.70;11.27;;;;;;;;;;4792997;29;20949;-83
2022/03/18 01:39:08;;;;;;;24.57;11.03;;;;;;;;;;4803550;29;20534;-83
2022/03/18 01:41:36;;;;;;;18.60;10.75;;;;;;;;;;4768299;29;20438;-83
2022/03/18 01:44:04;;;;;;;22.60;10.88;;;;;;;;;;4773179;29;20435;-83
2022/03/18 01:46:31;;;;;;;20.67;10.93;;;;;;;;;;4773810;29;20468;-87
2022/03/18 01:48:59;;;;;;;22.17;10.93;;;;;;;;;;4760040;29;20501;-87
2022/03/18 01:51:28;;;;;;;22.65;10.60;;;;;;;;;;4788354;29;20804;-87
2022/03/18 01:56:41;;;;;;;19.85;10.10;;;;;;;;;;4760960;29;20442;-87
2022/03/18 01:59:10;;;;;;;22.10;10.88;;;;;;;;;;4789921;29;20419;-87
2022/03/18 02:01:36;;;;;;;22.40;10.55;;;;;;;;;;4803834;29;20932;-87
2022/03/18 02:04:03;;;;;;;21.30;10.60;;;;;;;;;;4796431;29;20439;-83
2022/03/18 02:06:29;;;;;;;23.27;11.00;;;;;;;;;;4797233;29;20895;-83
2022/03/18 02:08:58;;;;;;;20.52;10.98;;;;;;;;;;4789045;29;20796;-83
2022/03/18 02:11:27;;;;;;;20.00;10.80;;;;;;;;;;4790530;29;20478;-83
2022/03/18 02:14:00;;;;;;;23.45;11.00;;;;;;;;;;4803188;29;20498;-83
2022/03/18 02:16:29;;;;;;;19.63;10.53;;;;;;;;;;4805488;29;20433;-83
2022/03/18 02:18:59;;;;;;;21.85;10.98;;;;;;;;;;4797115;29;20432;-83
2022/03/18 02:21:30;;;;;;;25.05;11.23;;;;;;;;;;4805596;29;20447;-83
2022/03/18 02:23:57;;;;;;;18.90;10.68;;;;;;;;;;4797362;29;20446;-87
2022/03/18 02:26:26;;;;;;;22.80;10.53;;;;;;;;;;4793378;29;20429;-88
2022/03/18 02:29:04;;;;;;;24.65;11.30;;;;;;;;;;4800874;29;20793;-87
2022/03/18 02:31:34;;;;;;;27.17;11.82;;;;;;;;;;4802558;29;20542;-88
2022/03/18 02:34:03;;;;;;;18.52;10.57;;;;;;;;;;4802533;29;20494;-87
2022/03/18 02:36:29;;;;;;;21.88;10.60;;;;;;;;;;4776232;29;20576;-88
2022/03/18 02:38:59;;;;;;;22.35;11.27;;;;;;;;;;4804242;29;20926;-88
2022/03/18 02:41:34;;;;;;;19.27;10.93;;;;;;;;;;4777480;29;20423;-88
2022/03/18 02:44:05;;;;;;;20.10;10.55;;;;;;;;;;4775209;29;20544;-89
2022/03/18 02:46:32;;;;;;;21.15;11.15;;;;;;;;;;4819860;29;20447;-88
2022/03/18 02:49:02;;;;;;;20.05;11.07;;;;;;;;;;4790566;29;20580;-87
2022/03/18 02:51:28;;;;;;;20.55;11.73;;;;;;;;;;4775831;29;20500;-87
2022/03/18 02:54:05;;;;;;;20.27;11.10;;;;;;;;;;4818749;29;20456;-88
2022/03/18 02:56:47;;;;;;;19.88;10.88;;;;;;;;;;4793787;29;20553;-88
2022/03/18 02:59:21;;;;;;;21.35;11.70;;;;;;;;;;4776175;29;20447;-88
2022/03/18 03:02:12;;;;;;;22.60;12.00;;;;;;;;;;4788258;29;20944;-88
2022/03/18 03:08:12;;;;;;;19.80;11.75;;;;;;;;;;4773407;30;20499;-87
2022/03/18 03:10:39;;;;;;;26.48;15.25;;;;;;;;;;4779274;30;20457;-88
2022/03/18 03:13:22;;;;;;;21.88;11.63;;;;;;;;;;4794152;29;21175;-88
2022/03/18 03:15:49;;;;;;;19.50;11.82;;;;;;;;;;4757033;30;20443;-88
2022/03/18 03:18:16;;;;;;;22.80;11.63;;;;;;;;;;4755207;30;20441;-87
2022/03/18 03:20:45;;;;;;;21.58;11.10;;;;;;;;;;4769465;30;20468;-89
2022/03/18 03:23:36;;;;;;;22.67;10.93;;;;;;;;;;4762300;30;20426;-88
2022/03/18 03:26:35;;;;;;;21.38;11.60;;;;;;;;;;4764905;29;20420;-88
2022/03/18 03:29:03;;;;;;;19.77;10.77;;;;;;;;;;4785018;30;20921;-87
2022/03/18 03:31:29;;;;;;;19.67;11.20;;;;;;;;;;4786742;29;20938;-84
2022/03/18 03:33:55;;;;;;;19.23;10.60;;;;;;;;;;4757423;30;20433;-89
2022/03/18 03:36:23;;;;;;;19.50;11.23;;;;;;;;;;4778298;29;20986;-88
2022/03/18 03:38:49;;;;;;;19.38;11.07;;;;;;;;;;4778704;30;20428;-89
2022/03/18 03:41:18;;;;;;;20.27;10.95;;;;;;;;;;4774830;29;20494;-89
2022/03/18 03:43:44;;;;;;;20.58;11.05;;;;;;;;;;4819585;29;20765;-89
2022/03/18 03:46:10;;;;;;;20.40;10.38;;;;;;;;;;4810216;29;20442;-87
2022/03/18 03:48:36;;;;;;;20.33;10.68;;;;;;;;;;4789736;29;20453;-88
2022/03/18 03:51:03;;;;;;;20.13;11.15;;;;;;;;;;4788333;29;20451;-88
2022/03/18 03:53:29;;;;;;;20.63;10.93;;;;;;;;;;4821029;29;20638;-87
2022/03/18 03:55:55;;;;;;;21.77;12.23;;;;;;;;;;4781997;29;20427;-88
2022/03/18 03:58:21;;;;;;;21.33;12.20;;;;;;;;;;4816640;29;20618;-88
2022/03/18 04:00:47;;;;;;;20.75;10.50;;;;;;;;;;4803549;29;20463;-88
2022/03/18 04:03:14;;;;;;;18.57;10.70;;;;;;;;;;4790204;29;20439;-88
2022/03/18 04:05:40;;;;;;;22.27;11.68;;;;;;;;;;4792718;29;20539;-88
2022/03/18 04:08:06;;;;;;;22.40;12.13;;;;;;;;;;4793355;29;20453;-87
2022/03/18 04:10:32;;;;;;;22.77;12.77;;;;;;;;;;4785125;29;20500;-88
2022/03/18 04:12:58;;;;;;;23.33;13.02;;;;;;;;;;4822462;29;20479;-87
2022/03/18 04:15:25;;;;;;;22.45;12.30;;;;;;;;;;4804976;29;20800;-88
2022/03/18 04:17:51;;;;;;;23.02;12.98;;;;;;;;;;4796630;29;20429;-88
2022/03/18 04:20:19;;;;;;;23.37;14.20;;;;;;;;;;4781475;29;20431;-88
2022/03/18 04:22:45;;;;;;;22.45;13.90;;;;;;;;;;4789639;29;20792;-88
2022/03/18 04:25:11;;;;;;;22.33;13.55;;;;;;;;;;4804410;29;21035;-88
2022/03/18 04:27:38;;;;;;;23.63;14.68;;;;;;;;;;4792680;29;20916;-87
2022/03/18 04:30:05;;;;;;;24.27;14.35;;;;;;;;;;4821470;29;20924;-87
2022/03/18 04:32:31;;;;;;;25.30;15.80;;;;;;;;;;4830433;29;20480;-87
2022/03/18 04:34:57;;;;;;;23.83;13.80;;;;;;;;;;4795039;29;20472;-87
2022/03/18 04:37:24;;;;;;;27.57;14.90;;;;;;;;;;4789538;29;20767;-86
2022/03/18 04:39:51;;;;;;;23.25;13.43;;;;;;;;;;4776241;29;20431;-87
2022/03/18 04:42:17;;;;;;;21.47;13.20;;;;;;;;;;4820327;29;20483;-87
2022/03/18 04:44:43;;;;;;;24.15;13.65;;;;;;;;;;4807942;29;20774;-87
2022/03/18 04:47:10;;;;;;;24.40;14.52;;;;;;;;;;4800692;29;20571;-87
2022/03/18 04:49:36;;;;;;;24.70;14.27;;;;;;;;;;4778403;29;20451;-87
2022/03/18 04:52:02;;;;;;;24.05;14.43;;;;;;;;;;4793583;29;20571;-88
2022/03/18 04:54:28;;;;;;;24.88;14.40;;;;;;;;;;4764639;30;20437;-87
2022/03/18 04:59:40;;;;;;;23.05;15.07;;;;;;;;;;4801899;29;20429;-88
2022/03/18 05:02:06;;;;;;;26.90;15.43;;;;;;;;;;4786371;29;20501;-88
2022/03/18 05:04:32;;;;;;;23.00;14.82;;;;;;;;;;4779345;29;20434;-88
2022/03/18 05:06:58;;;;;;;21.55;14.73;;;;;;;;;;4768568;29;20426;-88
2022/03/18 05:09:25;;;;;;;22.30;14.55;;;;;;;;;;4786252;30;20429;-89
2022/03/18 05:11:51;;;;;;;26.77;17.17;;;;;;;;;;4770833;30;21187;-88
2022/03/18 05:14:17;;;;;;;22.27;16.75;;;;;;;;;;4770805;29;20523;-88
2022/03/18 05:16:44;;;;;;;28.00;18.02;;;;;;;;;;4765372;29;20477;-88
2022/03/18 05:19:10;;;;;;;25.65;16.67;;;;;;;;;;4767111;30;20443;-87
2022/03/18 05:21:37;;;;;;;24.15;16.40;;;;;;;;;;4757234;30;20429;-88
2022/03/18 05:24:03;;;;;;;25.40;15.60;;;;;;;;;;4770131;29;20965;-89
2022/03/18 05:26:30;;;;;;;24.70;15.90;;;;;;;;;;4802146;29;20440;-88
2022/03/18 05:28:57;;;;;;;25.38;15.77;;;;;;;;;;4787056;29;20493;-88
2022/03/18 05:31:25;;;;;;;26.02;16.25;;;;;;;;;;4779087;29;20482;-84
2022/03/18 05:33:52;;;;;;;23.90;15.90;;;;;;;;;;4765719;30;20449;-83
2022/03/18 05:36:18;;;;;;;26.00;16.83;;;;;;;;;;4776573;29;20458;-83
2022/03/18 05:38:44;;;;;;;24.25;16.98;;;;;;;;;;4778292;29;20544;-83
2022/03/18 05:41:10;;;;;;;27.27;16.92;;;;;;;;;;4784370;29;20799;-83
2022/03/18 05:43:36;;;;;;;25.35;16.05;;;;;;;;;;4770365;29;20440;-83
2022/03/18 05:46:03;;;;;;;24.80;17.30;;;;;;;;;;4770624;29;20448;-84
2022/03/18 05:48:29;;;;;;;25.17;17.17;;;;;;;;;;4769787;29;20523;-84
2022/03/18 05:50:55;;;;;;;31.27;18.13;;;;;;;;;;4756288;30;20451;-84
2022/03/18 05:53:21;;;;;;;26.45;19.00;;;;;;;;;;4788459;29;20437;-84
2022/03/18 05:58:32;;;;;;;32.25;20.27;;;;;;;;;;4814018;29;20456;-83
2022/03/18 06:00:58;;;;;;;26.42;19.40;;;;;;;;;;4788732;29;20427;-82
2022/03/18 06:03:25;;;;;;;29.10;19.45;;;;;;;;;;4797161;29;20453;-83
2022/03/18 06:05:51;;;;;;;27.58;18.88;;;;;;;;;;4772736;29;20451;-83
2022/03/18 06:13:54;;;;;;;29.30;18.75;;;;;;;;;;4783673;29;20541;-83
2022/03/18 06:16:20;;;;;;;33.08;18.45;;;;;;;;;;4794684;29;20507;-83
2022/03/18 06:18:46;;;;;;;28.73;19.05;;;;;;;;;;4791662;29;20431;-83
2022/03/18 06:21:15;;;;;;;29.17;18.17;;;;;;;;;;4806082;29;20434;-83
2022/03/18 06:23:41;;;;;;;26.85;17.63;;;;;;;;;;4790187;29;20789;-82
2022/03/18 06:26:07;;;;;;;27.52;19.30;;;;;;;;;;4776410;29;20431;-83
2022/03/18 06:28:33;;;;;;;31.85;19.67;;;;;;;;;;4795803;29;20500;-83
2022/03/18 06:30:59;;;;;;;25.20;17.40;;;;;;;;;;4790848;29;20443;-82
2022/03/18 06:33:28;;;;;;;24.75;16.30;;;;;;;;;;4834264;29;20427;-83
2022/03/18 06:35:54;;;;;;;30.40;19.23;;;;;;;;;;4823846;29;20490;-83
2022/03/18 06:38:20;;;;;;;31.95;20.98;;;;;;;;;;4796177;29;20510;-83
2022/03/18 06:40:46;;;;;;;30.17;20.90;;;;;;;;;;4776424;29;20426;-82
2022/03/18 06:43:12;;;;;;;28.65;20.48;;;;;;;;;;4821344;29;20427;-84
2022/03/18 06:45:40;;;;;;;31.57;20.70;;;;;;;;;;4774606;29;20613;-83
2022/03/18 06:48:06;;;;;;;28.75;20.42;;;;;;;;;;4790248;29;20446;-84
2022/03/18 06:50:32;;;;;;;29.50;20.52;;;;;;;;;;4758529;29;20809;-84
2022/03/18 06:52:58;;;;;;;31.00;22.63;;;;;;;;;;4782520;29;20474;-83
2022/03/18 06:55:25;;;;;;;31.33;21.60;;;;;;;;;;4786768;29;20495;-84
2022/03/18 06:57:51;;;;;;;32.43;22.20;;;;;;;;;;4782996;30;20421;-83
2022/03/18 07:00:17;;;;;;;29.90;20.85;;;;;;;;;;4763436;29;21004;-86
2022/03/18 07:02:43;;;;;;;31.60;21.45;;;;;;;;;;4774285;29;20442;-85
2022/03/18 07:05:09;;;;;;;29.77;20.85;;;;;;;;;;4792884;29;20432;-85
2022/03/18 07:07:35;;;;;;;29.15;20.27;;;;;;;;;;4789868;29;20443;-85
2022/03/18 07:10:01;;;;;;;29.73;20.75;;;;;;;;;;4774228;29;20474;-85
2022/03/18 07:12:27;;;;;;;26.00;20.85;;;;;;;;;;4807882;29;20456;-84
2022/03/18 07:14:53;;;;;;;25.95;18.35;;;;;;;;;;4793072;29;20781;-84
2022/03/18 07:20:05;;;;;;;25.48;17.73;;;;;;;;;;4813473;29;20438;-85
2022/03/18 07:22:31;;;;;;;24.45;17.58;;;;;;;;;;4790369;29;20446;-83
2022/03/18 07:24:57;;;;;;;23.23;17.43;;;;;;;;;;4789079;29;20451;-84
2022/03/18 07:27:23;;;;;;;25.23;17.13;;;;;;;;;;4789760;29;20442;-87
2022/03/18 07:29:49;;;;;;;28.10;17.17;;;;;;;;;;4773072;29;20616;-87
2022/03/18 07:32:16;;;;;;;23.58;16.80;;;;;;;;;;4772764;29;20450;-87
2022/03/18 07:34:42;;;;;;;24.67;16.58;;;;;;;;;;4782728;29;20956;-87
2022/03/18 07:37:08;;;;;;;25.40;17.10;;;;;;;;;;4773703;29;20623;-88
2022/03/18 07:39:34;;;;;;;23.15;17.10;;;;;;;;;;4804601;29;20807;-87
2022/03/18 07:42:00;;;;;;;26.13;17.33;;;;;;;;;;4789532;29;20435;-90
2022/03/18 07:44:26;;;;;;;24.73;17.60;;;;;;;;;;4776081;29;20773;-86
2022/03/18 07:46:52;;;;;;;23.63;17.42;;;;;;;;;;4805696;29;20447;-88
2022/03/18 07:49:18;;;;;;;22.98;17.58;;;;;;;;;;4792634;29;20475;-89
2022/03/18 07:51:45;;;;;;;24.15;17.30;;;;;;;;;;4803117;29;20443;-90
2022/03/18 07:54:11;;;;;;;23.17;16.98;;;;;;;;;;4759063;29;20482;-91
2022/03/18 07:56:37;;;;;;;25.73;17.08;;;;;;;;;;4834201;29;20433;-91
2022/03/18 07:59:03;;;;;;;25.60;17.15;;;;;;;;;;4812974;29;20469;-90
2022/03/18 08:01:30;;;;;;;24.45;17.27;;;;;;;;;;4799966;29;20434;-92
2022/03/18 08:03:56;;;;;;;23.10;16.05;;;;;;;;;;4796136;29;20435;-92
2022/03/18 08:06:22;;;;;;;26.48;16.92;;;;;;;;;;4813937;29;20506;-93
2022/03/18 08:08:48;;;;;;;22.80;16.57;;;;;;;;;;4821695;29;20443;-91
2022/03/18 08:11:15;;;;;;;22.90;16.17;;;;;;;;;;4800893;29;20782;-92
2022/03/18 08:13:42;;;;;;;21.70;15.85;;;;;;;;;;4779978;29;20435;-91
2022/03/18 08:16:08;;;;;;;25.20;15.27;;;;;;;;;;4794083;29;20433;-92
2022/03/18 08:18:34;;;;;;;24.30;15.32;;;;;;;;;;4775976;29;20443;-91
2022/03/18 08:21:18;;;;;;;26.77;15.82;;;8.60;99.90;;;;;;4786809;29;20439;-88
2022/03/18 08:23:45;;;;;;;25.83;15.35;;;;;;;;;;4793302;29;20441;-83
2022/03/18 08:26:11;;;;;;;23.07;13.47;;;;;;;;;;4798985;29;20446;-92
2022/03/18 08:28:37;;;;;;;23.80;14.18;;;;;;;;;;4775488;29;20936;-90
2022/03/18 08:31:03;;;;;;;28.13;14.60;;;;;;;;;;4810476;29;20455;-91
2022/03/18 08:33:31;;;;;;;25.98;14.80;;;;;;;;;;4821513;29;20512;-91
2022/03/18 08:35:57;;;;;;;25.70;14.07;;;;;;;;;;4795177;29;20435;-94
2022/03/18 08:38:23;;;;;;;25.52;13.73;;;;;;;;;;4775157;29;20443;-92
2022/03/18 08:40:49;;;;;;;25.38;14.93;;;;;;;;;;4790108;29;20470;-88
2022/03/18 08:43:15;;;;;;;26.95;14.50;;;;;;;;;;4787648;29;20544;-87
2022/03/18 08:45:41;;;;;;;23.38;13.60;;;;;;;;;;4758429;29;20975;-89
2022/03/18 08:48:07;;;;;;;23.43;13.50;;;;;;;;;;4762346;29;20423;-89
2022/03/18 08:50:34;;;;;;;21.25;12.95;;;;;;;;;;4814797;29;20519;-91
2022/03/18 08:53:00;;;;;;;23.07;12.23;;;;;;;;;;4798066;29;20450;-79
2022/03/18 08:55:26;;;;;;;22.60;12.45;;;;;;;;;;4790379;29;20441;-79
2022/03/18 08:57:52;;;;;;;20.63;11.50;;;;;;;;;;4779242;29;20443;-79
2022/03/18 09:00:19;;;;;;;22.17;12.35;;;;;;;;;;4772704;29;20435;-80
2022/03/18 09:02:46;;;;;;;30.50;12.18;;;;;;;;;;4773665;29;20522;-80
2022/03/18 09:05:12;;;;;;;23.02;11.75;;;;;;;;;;4806172;29;20454;-79
2022/03/18 09:07:39;;;;;;;20.52;10.90;;;;;;;;;;4801678;29;20439;-80
2022/03/18 09:10:06;;;;;;;20.00;10.98;;;;;;;;;;4814118;29;20451;-79
2022/03/18 09:12:32;;;;;;;18.92;10.52;;;;;;;;;;4815021;29;20447;-79
2022/03/18 09:14:58;;;;;;;20.48;9.60;;;;;;;;;;4788391;29;20447;-79
2022/03/18 09:17:25;;;;;;;19.23;10.10;;;;;;;;;;4792709;29;20525;-80
2022/03/18 09:19:51;;;;;;;21.60;9.82;;;;;;;;;;4804960;29;20864;-80
2022/03/18 09:22:17;;;;;;;19.52;9.73;;;;;;;;;;4789102;29;20496;-80
2022/03/18 09:24:44;;;;;;;19.23;8.43;;;;;;;;;;4788350;29;20440;-76
2022/03/18 09:27:10;;;;;;;18.43;8.87;;;;;;;;;;4788730;29;20833;-81
2022/03/18 09:29:39;;;;;;;16.30;9.07;;;;;;;;;;4786363;29;20518;-80
2022/03/18 09:32:06;;;;;;;22.35;9.65;;;;;;;;;;4801216;29;20810;-81
2022/03/18 09:34:34;;;;;;;19.73;9.87;;;;;;;;;;4796262;29;20435;-79
2022/03/18 09:37:00;;;;;;;19.10;10.00;;;;;;;;;;4781323;29;20446;-77
2022/03/18 09:39:27;;;;;;;19.02;9.95;;;;;;;;;;4798319;29;20425;-84
2022/03/18 09:41:53;;;;;;;19.13;9.63;;;;;;;;;;4793774;29;20439;-80
2022/03/18 09:44:19;;;;;;;18.13;8.88;;;;;;;;;;4791130;29;20461;-82
2022/03/18 09:46:47;;;;;;;16.50;8.37;;;;;;;;;;4815049;29;20784;-83
2022/03/18 09:49:20;;;;;;;19.73;8.85;;;13.20;99.90;;;;;;4758280;29;20473;-82
2022/03/18 09:51:47;;;;;;;20.80;8.63;;;;;;;;;;4787435;29;20439;-83
2022/03/18 09:54:14;;;;;;;20.83;9.00;;;;;;;;;;4773050;29;20423;-83
2022/03/18 09:56:42;;;;;;;18.33;8.57;;;13.10;99.90;;;;;;4767035;29;21813;-83
2022/03/18 09:59:08;;;;;;;22.70;8.88;;;;;;;;;;4783076;29;20439;-85
2022/03/18 10:01:35;;;;;;;18.50;8.75;;;;;;;;;;4785634;29;20840;-83
2022/03/18 10:04:06;;;;;;;19.97;8.73;;;;;;;;;;4810874;29;20429;-84
2022/03/18 10:06:34;;;;;;;21.55;9.18;;;;;;;;;;4786451;29;20435;-83
2022/03/18 10:09:00;;;;;;;21.98;8.82;;;;;;;;;;4780418;29;20534;-83
2022/03/18 10:11:27;;;;;;;20.10;9.10;;;;;;;;;;4785508;29;20474;-83
2022/03/18 10:13:56;;;;;;;19.40;8.85;;;;;;;;;;4811609;29;20447;-84
2022/03/18 10:16:38;;;;;;;15.32;8.10;;;;;;;;;;4771755;29;20446;-83
2022/03/18 10:19:15;;;;;;;18.02;8.85;;;14.30;99.90;;;;;;4797210;29;20435;-83
2022/03/18 10:21:54;;;;;;;15.23;8.38;;;;;;;;;;4817855;29;20505;-84
2022/03/18 10:24:27;;;;;;;17.73;8.68;;;14.00;99.90;;;;;;4786937;29;20486;-83
2022/03/18 10:26:53;;;;;;;17.43;8.77;;;;;;;;;;4763965;29;20451;-83
2022/03/18 10:29:19;;;;;;;19.85;8.55;;;;;;;;;;4772182;29;20854;-82
2022/03/18 10:31:59;;;;;;;16.48;9.82;;;14.10;99.90;;;;;;4797846;29;20796;-83
2022/03/18 10:37:21;;;;;;;18.83;9.15;;;;;;;;;;4785047;29;20451;-81
2022/03/18 10:39:51;;;;;;;15.45;8.82;;;14.70;99.90;;;;;;4770445;29;20443;-79
2022/03/18 10:42:19;;;;;;;25.13;9.85;;;;;;;;;;4771408;29;20467;-79
2022/03/18 10:44:55;;;;;;;17.77;9.15;;;;;;;;;;4788948;29;20434;-79
2022/03/18 10:47:27;;;;;;;20.97;9.70;;;;;;;;;;4784105;29;20439;-79
2022/03/18 10:50:12;;;;;;;19.90;9.90;;;14.80;99.90;;;;;;4783978;29;20445;-79
2022/03/18 10:52:38;;;;;;;18.65;8.82;;;;;;;;;;4782207;29;20447;-81
2022/03/18 10:55:21;;;;;;;17.45;9.23;;;;;;;;;;4796909;29;20473;-81
2022/03/18 10:58:04;;;;;;;18.95;8.52;;;;;;;;;;4770705;29;20940;-80
2022/03/18 11:00:31;;;;;;;19.23;8.80;;;;;;;;;;4801190;29;20455;-79
2022/03/18 11:03:01;;;;;;;14.75;8.50;;;;;;;;;;4783494;29;21094;-79
2022/03/18 11:05:33;;;;;;;19.67;8.93;;;;;;;;;;4799357;29;20454;-80
2022/03/18 11:08:00;;;;;;;19.67;8.88;;;;;;;;;;4785447;29;20915;-79
2022/03/18 11:13:13;;;;;;;19.50;8.65;;;;;;;;;;4781938;29;20821;-80
2022/03/18 11:15:45;;;;;;;17.77;8.57;;;15.20;99.90;;;;;;4783151;29;20795;-81
2022/03/18 11:18:14;;;;;;;16.38;8.68;;;;;;;;;;4784417;29;20434;-81
2022/03/18 11:20:43;;;;;;;17.95;8.85;;;15.30;99.90;;;;;;4784925;29;20438;-81
2022/03/18 11:23:16;;;;;;;22.38;8.63;;;;;;;;;;4769457;29;20499;-80
2022/03/18 11:25:43;;;;;;;17.30;8.50;;;;;;;;;;4821662;29;20454;-81
2022/03/18 11:28:14;;;;;;;16.77;8.20;;;;;;;;;;4797790;29;20443;-81
2022/03/18 11:30:41;;;;;;;16.48;7.40;;;;;;;;;;4783362;29;20435;-80
2022/03/18 11:33:10;;;;;;;18.02;8.35;;;;;;;;;;4783815;29;20530;-80
2022/03/18 11:35:49;;;;;;;15.30;7.78;;;;;;;;;;4782653;29;20483;-80
2022/03/18 11:38:23;;;;;;;13.57;6.38;;;15.30;99.90;;;;;;4792503;29;20502;-80
2022/03/18 11:40:53;;;;;;;14.43;6.07;;;;;;;;;;4784244;29;20956;-80
2022/03/18 11:43:33;;;;;;;16.38;6.18;;;;;;;;;;4794250;29;20455;-80
2022/03/18 11:46:21;;;;;;;13.40;5.72;;;;;;;;;;4778235;29;20447;-80
2022/03/18 11:48:55;;;;;;;12.60;6.20;;;15.60;99.90;;;;;;4814359;29;20432;-83
2022/03/18 11:51:26;;;;;;;15.07;6.90;;;;;;;;;;4798910;29;20443;-82
2022/03/18 11:53:54;;;;;;;13.95;5.97;;;;;;;;;;4785441;29;20467;-83
2022/03/18 11:56:23;;;;;;;13.63;6.32;;;15.80;99.90;;;;;;4801929;29;20455;-83
2022/03/18 11:58:49;;;;;;;14.55;6.10;;;;;;;;;;4786337;29;20567;-83
2022/03/18 12:01:40;;;;;;;13.73;6.00;;;16.50;99.90;;;;;;4792445;29;20431;-83
2022/03/18 12:04:06;;;;;;;16.42;6.00;;;;;;;;;;4784851;29;20972;-83
2022/03/18 12:06:32;;;;;;;13.73;5.82;;;;;;;;;;4797074;29;20524;-84
2022/03/18 12:08:59;;;;;;;14.68;6.40;;;;;;;;;;4802122;29;20506;-84
2022/03/18 12:11:35;;;;;;;15.18;6.28;;;17.00;99.90;;;;;;4783626;29;20922;-84
2022/03/18 12:14:01;;;;;;;16.67;6.55;;;;;;;;;;4784108;29;20800;-85
2022/03/18 12:16:27;;;;;;;12.98;5.03;;;;;;;;;;4818794;29;20451;-84
2022/03/18 12:18:55;;;;;;;13.18;5.00;;;;;;;;;;4802609;29;20417;-87
2022/03/18 12:21:34;;;;;;;11.13;4.45;;;;;;;;;;4815801;29;20492;-86
2022/03/18 12:24:07;;;;;;;12.77;5.13;;;17.70;99.90;;;;;;4808996;29;20786;-86
2022/03/18 12:26:35;;;;;;;13.25;5.20;;;17.80;99.90;;;;;;4789026;29;20451;-88
2022/03/18 12:29:01;;;;;;;12.53;4.70;;;;;;;;;;4776497;29;20438;-87
2022/03/18 12:31:27;;;;;;;12.77;4.60;;;;;;;;;;4779750;29;20858;-87
2022/03/18 12:34:02;;;;;;;10.18;3.65;;;18.10;99.90;;;;;;4786588;29;20449;-88
2022/03/18 12:36:29;;;;;;;8.33;3.53;;;;;;;;;;4772716;29;20437;-88
2022/03/18 12:39:09;;;;;;;10.05;3.05;;;18.20;99.90;;;;;;4800901;29;20458;-88
2022/03/18 12:41:35;;;;;;;9.93;3.05;;;;;;;;;;4779508;29;20435;-87
2022/03/18 12:44:01;;;;;;;13.30;4.00;;;18.00;99.90;;;;;;4810812;29;20450;-87
2022/03/18 12:46:29;;;;;;;11.60;4.40;;;18.00;99.90;;;;;;4792919;29;20439;-80
2022/03/18 12:48:54;;;;;;;12.90;4.63;;;17.90;99.90;;;;;;4797913;29;20455;-86
2022/03/18 12:51:20;;;;;;;13.80;5.32;;;;;;;;;;4775187;29;20464;-85
2022/03/18 12:53:46;;;;;;;12.23;4.72;;;;;;;;;;4772741;29;20447;-87
2022/03/18 12:56:16;;;;;;;13.65;4.10;;;;;;;;;;4764102;29;20785;-85
2022/03/18 12:58:43;;;;;;;11.10;4.03;;;;;;;;;;4792569;29;20925;-85
2022/03/18 13:01:11;;;;;;;11.63;3.80;;;;;;;;;;4795945;29;20479;-85
2022/03/18 13:03:46;;;;;;;9.43;3.70;;;17.80;99.90;;;;;;4789971;29;20530;-85
2022/03/18 13:06:18;;;;;;;10.57;3.60;;;;;;;;;;4786846;29;20469;-84
2022/03/18 13:08:52;;;;;;;9.93;3.73;;;17.80;99.90;;;;;;4812142;29;20517;-86
2022/03/18 13:11:18;;;;;;;11.70;3.55;;;;;;;;;;4820594;29;20952;-85
2022/03/18 13:13:50;;;;;;;12.20;4.00;;;18.30;99.90;;;;;;4765331;29;20436;-84
2022/03/18 13:16:22;;;;;;;12.23;4.00;;;18.40;99.90;;;;;;4815089;29;20439;-86
2022/03/18 13:18:50;;;;;;;12.75;4.18;;;18.10;99.90;;;;;;4813686;29;20793;-85
2022/03/18 13:21:16;;;;;;;12.68;4.10;;;;;;;;;;4771600;29;20444;-84
2022/03/18 13:23:43;;;;;;;11.95;4.22;;;;;;;;;;4783946;29;20783;-85
2022/03/18 13:26:13;;;;;;;10.60;4.00;;;18.00;99.90;;;;;;4794072;29;20447;-85
2022/03/18 13:28:40;;;;;;;12.35;4.30;;;;;;;;;;4805734;29;20922;-85
2022/03/18 13:33:52;;;;;;;9.23;3.50;;;17.50;99.90;;;;;;4785941;29;20450;-86
2022/03/18 13:36:37;;;;;;;12.15;3.67;;;;;;;;;;4770669;29;20451;-85
2022/03/18 13:39:07;;;;;;;12.90;3.97;;;;;;;;;;4798407;29;20454;-85
2022/03/18 13:41:48;;;;;;;13.68;4.68;;;;;;;;;;4785215;29;20858;-85
2022/03/18 13:44:15;;;;;;;14.40;4.70;;;;;;;;;;4801177;29;20467;-85
2022/03/18 13:46:42;;;;;;;13.50;4.40;;;;;;;;;;4787130;29;20454;-84
2022/03/18 13:49:18;;;;;;;15.38;4.60;;;;;;;;;;4795353;29;20488;-84
2022/03/18 13:51:50;;;;;;;13.73;4.45;;;;;;;;;;4814475;29;20530;-86
2022/03/18 13:54:17;;;;;;;15.27;4.82;;;;;;;;;;4791475;29;20944;-85
2022/03/18 13:56:55;;;;;;;16.83;4.83;;;;;;;;;;4815918;29;20515;-86
2022/03/18 13:59:21;;;;;;;12.10;4.47;;;;;;;;;;4786939;29;20776;-85
2022/03/18 14:02:09;;;;;;;15.05;4.97;;;;;;;;;;4786873;29;20446;-85
2022/03/18 14:04:45;;;;;;;14.97;4.50;;;;;;;;;;4776551;29;20479;-82
2022/03/18 14:07:12;;;;;;;10.73;3.40;;;;;;;;;;4798607;29;20435;-86
2022/03/18 14:09:38;;;;;;;12.18;3.35;;;;;;;;;;4817719;29;20446;-87
2022/03/18 14:12:14;;;;;;;15.50;4.40;;;;;;;;;;4797395;29;20448;-84
2022/03/18 14:14:41;;;;;;;14.07;4.20;;;15.70;99.90;;;;;;4796082;29;20450;-84
2022/03/18 14:17:17;;;;;;;19.40;5.22;;;;;;;;;;4815785;29;20513;-85
2022/03/18 14:19:58;;;;;;;10.73;3.00;;;;;;;;;;4784907;29;20458;-83
2022/03/18 14:22:32;;;;;;;10.27;3.40;;;;;;;;;;4787868;29;20576;-83
2022/03/18 14:24:59;;;;;;;13.77;4.15;;;;;;;;;;4797506;29;20522;-83
2022/03/18 14:27:25;;;;;;;16.87;4.50;;;;;;;;;;4793205;29;20450;-84
2022/03/18 14:29:53;;;;;;;17.02;4.25;;;;;;;;;;4812682;29;20484;-84
2022/03/18 14:32:19;;;;;;;15.50;4.67;;;;;;;;;;4788720;29;20447;-83
2022/03/18 14:34:48;;;;;;;14.23;4.30;;;;;;;;;;4806676;29;20530;-84
2022/03/18 14:37:15;;;;;;;16.37;4.90;;;;;;;;;;4798095;29;20525;-84
2022/03/18 14:39:41;;;;;;;17.90;4.28;;;;;;;;;;4801485;29;20446;-85
2022/03/18 14:42:07;;;;;;;18.02;5.07;;;;;;;;;;4798771;29;20425;-84
2022/03/18 14:44:35;;;;;;;17.58;4.75;;;;;;;;;;4808306;29;20454;-83
2022/03/18 14:47:01;;;;;;;18.02;4.20;;;;;;;;;;4791705;29;20472;-83
2022/03/18 14:49:28;;;;;;;15.30;3.80;;;;;;;;;;4789702;29;20466;-82
2022/03/18 14:51:54;;;;;;;14.40;4.47;;;;;;;;;;4774610;29;20543;-82
2022/03/18 14:56:17;;;;;;;16.42;4.28;;;;;;;;;;4789846;29;20782;-83
2022/03/18 14:57:06;;;;;;;17.27;4.07;;;;;;;;;;4791365;29;20797;-83
2022/03/18 14:59:32;;;;;;;13.55;3.88;;;;;;;;;;4783945;29;20447;-83
2022/03/18 15:01:58;;;;;;;19.33;3.78;;;;;;;;;;4785230;29;20477;-83
2022/03/18 15:04:25;;;;;;;14.38;3.55;;;;;;;;;;4775758;29;20466;-82
2022/03/18 15:06:51;;;;;;;13.43;3.13;;;;;;;;;;4799056;29;20945;-83
2022/03/18 15:09:17;;;;;;;15.45;3.60;;;;;;;;;;4790879;29;20519;-83
2022/03/18 15:11:43;;;;;;;15.27;3.60;;;;;;;;;;4821195;29;20443;-83
2022/03/18 15:14:09;;;;;;;15.93;4.00;;;;;;;;;;4802683;29;20431;-83
2022/03/18 15:16:36;;;;;;;14.50;3.77;;;;;;;;;;4813225;29;20436;-84